Terminal Aerodrome Forecast
Issued by NWS Nashville, TN

Home | Current Version | Previous Version | Text Only | Print | Product List | Glossary On
Versions: 1 2 3 4 5 6 7 8 9 10 11 12 13 14
000
FTUS44 KOHX 252300
TAFCSV
TAF
KCSV 252331Z 2600/2624 28004KT P6SM SKC
     FM260600 VRB02KT 6SM BR SKC
     FM260800 00000KT 4SM BR SCT007
      TEMPO 2609/2613 2SM BR BKN007
     FM261500 00000KT P6SM SCT025
     FM261800 VRB03KT P6SM SKC=

USA.gov is the U.S. government's official web portal to all federal, state and local government web resources and services.